createdAt,value
2023-10-19T00:01:39.066Z,12.57
2023-10-19T00:04:26.852Z,11.87
2023-10-19T00:07:17.140Z,11.90
2023-10-19T00:10:05.298Z,12.40
2023-10-19T00:13:01.046Z,12.10
2023-10-19T00:15:53.094Z,12.63
2023-10-19T00:18:44.207Z,12.47
2023-10-19T00:21:37.462Z,11.90
2023-10-19T00:24:24.655Z,12.20
2023-10-19T00:27:17.763Z,12.03
2023-10-19T00:30:09.599Z,12.53
2023-10-19T00:32:57.273Z,12.47
2023-10-19T00:35:48.651Z,12.10
2023-10-19T00:38:36.564Z,12.80
2023-10-19T00:41:31.260Z,13.20
2023-10-19T00:44:32.062Z,13.67
2023-10-19T00:47:25.117Z,13.03
2023-10-19T00:50:23.106Z,13.27
2023-10-19T00:53:13.788Z,13.53
2023-10-19T00:56:01.920Z,12.63
2023-10-19T00:58:54.385Z,13.33
2023-10-19T01:01:47.831Z,13.87
2023-10-19T01:04:36.690Z,12.63
2023-10-19T01:07:27.430Z,13.10
2023-10-19T01:10:21.972Z,12.73
2023-10-19T01:13:10.565Z,12.87
2023-10-19T01:15:59.610Z,13.00
2023-10-19T01:18:47.216Z,13.47
2023-10-19T01:21:38.848Z,13.50
2023-10-19T01:24:43.019Z,12.77
2023-10-19T01:27:30.113Z,12.87
2023-10-19T01:30:18.722Z,14.40
2023-10-19T01:33:10.237Z,12.77
2023-10-19T01:36:12.188Z,13.60
2023-10-19T01:39:02.338Z,13.27
2023-10-19T01:41:51.806Z,13.80
2023-10-19T01:44:39.296Z,13.07
2023-10-19T01:47:26.838Z,12.67
2023-10-19T01:50:20.978Z,12.40
2023-10-19T01:53:16.380Z,12.77
2023-10-19T01:56:07.526Z,12.30
2023-10-19T01:58:55.795Z,11.73
2023-10-19T02:01:46.681Z,12.50
2023-10-19T02:04:36.534Z,13.67
2023-10-19T02:07:24.459Z,12.93
2023-10-19T02:10:11.827Z,12.73
2023-10-19T02:12:58.938Z,13.20
2023-10-19T02:15:54.453Z,13.50
2023-10-19T02:18:45.727Z,13.30
2023-10-19T02:21:33.831Z,11.73
2023-10-19T02:24:21.451Z,12.83
2023-10-19T02:27:13.661Z,13.30
2023-10-19T02:30:07.410Z,12.47
2023-10-19T02:32:54.619Z,13.27
2023-10-19T02:35:42.141Z,11.83
2023-10-19T02:38:29.179Z,11.93
2023-10-19T02:41:18.839Z,12.27
2023-10-19T02:44:09.723Z,13.07
2023-10-19T02:47:00.593Z,12.47
2023-10-19T02:49:52.623Z,12.37
2023-10-19T02:52:44.770Z,12.63
2023-10-19T02:55:32.712Z,11.83
2023-10-19T02:58:19.908Z,12.50
2023-10-19T03:01:34.468Z,11.97
2023-10-19T03:04:21.958Z,12.50
2023-10-19T03:07:09.351Z,12.33
2023-10-19T03:09:56.953Z,12.80
2023-10-19T03:12:46.014Z,12.87
2023-10-19T03:15:34.541Z,11.87
2023-10-19T03:18:21.748Z,11.73
2023-10-19T03:21:08.900Z,11.37
2023-10-19T03:23:57.855Z,12.13
2023-10-19T03:26:49.751Z,12.40
2023-10-19T03:29:39.809Z,11.80
2023-10-19T03:32:33.665Z,12.27
2023-10-19T03:35:22.422Z,11.67
2023-10-19T03:38:17.840Z,11.73
2023-10-19T03:41:08.322Z,12.27
2023-10-19T03:43:57.811Z,12.70
2023-10-19T03:46:54.192Z,12.37
2023-10-19T03:49:42.728Z,12.37
2023-10-19T03:52:31.633Z,12.57
2023-10-19T03:55:25.014Z,13.07
2023-10-19T03:58:13.172Z,12.10
2023-10-19T04:01:06.044Z,12.83
2023-10-19T04:03:56.289Z,12.50
2023-10-19T04:06:50.754Z,12.17
2023-10-19T04:09:57.862Z,12.33
2023-10-19T04:12:45.434Z,12.33
2023-10-19T04:15:36.727Z,11.90
2023-10-19T04:18:26.699Z,11.67
2023-10-19T04:21:13.764Z,11.97
2023-10-19T04:24:00.717Z,12.43
2023-10-19T04:26:50.113Z,12.80
2023-10-19T04:29:40.560Z,12.00
2023-10-19T04:32:27.961Z,12.63
2023-10-19T04:35:22.643Z,11.70
2023-10-19T04:38:09.817Z,12.53
2023-10-19T04:41:08.404Z,12.30
2023-10-19T04:43:55.968Z,11.70
2023-10-19T04:46:43.749Z,11.70
2023-10-19T04:49:30.903Z,12.33
2023-10-19T04:52:18.437Z,12.37
2023-10-19T04:55:06.520Z,11.63
2023-10-19T04:57:53.541Z,12.07
2023-10-19T05:00:40.548Z,11.20
2023-10-19T05:03:29.076Z,11.63
2023-10-19T05:06:16.119Z,11.73
2023-10-19T05:09:04.330Z,11.50
2023-10-19T05:11:54.553Z,11.40
2023-10-19T05:14:43.686Z,11.10
2023-10-19T05:17:30.775Z,11.83
2023-10-19T05:20:17.855Z,12.20
2023-10-19T05:23:05.479Z,12.80
2023-10-19T05:25:54.680Z,12.27
2023-10-19T05:28:43.907Z,12.77
2023-10-19T05:31:33.032Z,11.80
2023-10-19T05:34:24.761Z,11.80
2023-10-19T05:37:12.195Z,11.43
2023-10-19T05:39:59.755Z,11.30
2023-10-19T05:42:47.242Z,11.70
2023-10-19T05:45:36.132Z,11.57
2023-10-19T05:48:25.198Z,11.93
2023-10-19T05:51:12.295Z,12.33
2023-10-19T05:54:02.976Z,11.77
2023-10-19T05:56:50.989Z,12.17
2023-10-19T05:59:38.073Z,12.13
2023-10-19T06:02:32.983Z,11.80
2023-10-19T06:05:20.955Z,11.73
2023-10-19T06:08:07.954Z,11.67
2023-10-19T06:10:55.202Z,11.33
2023-10-19T06:13:42.352Z,12.00
2023-10-19T06:16:29.533Z,11.87
2023-10-19T06:19:17.437Z,11.80
2023-10-19T06:22:05.164Z,12.07
2023-10-19T06:24:52.773Z,12.10
2023-10-19T06:27:39.745Z,11.63
2023-10-19T06:30:27.509Z,12.00
2023-10-19T06:33:15.020Z,11.80
2023-10-19T06:36:04.387Z,11.97
2023-10-19T06:38:52.241Z,12.83
2023-10-19T06:41:39.377Z,11.83
2023-10-19T06:44:26.400Z,12.03
2023-10-19T06:47:14.695Z,12.83
2023-10-19T06:50:03.214Z,11.70
2023-10-19T06:52:51.250Z,11.97
2023-10-19T06:55:38.364Z,11.90
2023-10-19T06:58:27.447Z,12.73
2023-10-19T07:01:17.665Z,12.67
2023-10-19T07:04:04.937Z,12.60
2023-10-19T07:06:52.780Z,11.33
2023-10-19T07:09:40.172Z,11.33
2023-10-19T07:12:27.190Z,12.80
2023-10-19T07:15:15.188Z,12.17
2023-10-19T07:18:02.243Z,11.47
2023-10-19T07:20:50.822Z,12.53
2023-10-19T07:23:41.618Z,12.37
2023-10-19T07:26:32.660Z,12.73
2023-10-19T07:29:20.210Z,12.00
2023-10-19T07:32:07.314Z,12.10
2023-10-19T07:34:55.755Z,12.37
2023-10-19T07:37:44.563Z,12.37
2023-10-19T07:40:32.027Z,11.80
2023-10-19T07:43:21.141Z,12.47
2023-10-19T07:46:09.585Z,12.27
2023-10-19T07:48:58.340Z,11.53
2023-10-19T07:51:49.092Z,11.93
2023-10-19T07:54:36.325Z,12.13
2023-10-19T07:57:23.320Z,11.60
2023-10-19T08:00:11.956Z,11.90
2023-10-19T08:02:59.813Z,12.13
2023-10-19T08:05:47.137Z,11.87
2023-10-19T08:08:37.847Z,11.87
2023-10-19T08:11:25.181Z,11.60
2023-10-19T08:14:12.311Z,11.50
2023-10-19T08:16:59.625Z,12.90
2023-10-19T08:19:46.646Z,12.00
2023-10-19T08:22:33.733Z,12.67
2023-10-19T08:25:22.065Z,11.67
2023-10-19T08:28:09.334Z,11.40
2023-10-19T08:31:01.537Z,11.57
2023-10-19T08:33:49.007Z,11.10
2023-10-19T08:36:38.421Z,11.40
2023-10-19T08:39:25.719Z,12.43
2023-10-19T08:42:12.726Z,10.97
2023-10-19T08:45:00.442Z,11.90
2023-10-19T08:47:58.266Z,11.53
2023-10-19T08:50:47.349Z,11.60
2023-10-19T08:53:40.543Z,12.23
2023-10-19T08:56:28.267Z,12.23
2023-10-19T08:59:18.212Z,11.57
2023-10-19T09:02:07.469Z,11.30
2023-10-19T09:04:55.017Z,11.47
2023-10-19T09:07:42.951Z,11.53
2023-10-19T09:10:33.344Z,11.57
2023-10-19T09:13:21.234Z,10.87
2023-10-19T09:16:08.606Z,12.00
2023-10-19T09:18:57.433Z,11.57
2023-10-19T09:21:44.775Z,12.00
2023-10-19T09:24:33.279Z,11.60
2023-10-19T09:27:23.808Z,10.67
2023-10-19T09:30:17.739Z,11.67
2023-10-19T09:33:05.389Z,10.83
2023-10-19T09:35:54.942Z,11.50
2023-10-19T09:38:52.530Z,11.77
2023-10-19T09:41:42.014Z,11.70
2023-10-19T09:44:33.154Z,11.30
2023-10-19T09:47:36.596Z,10.63
2023-10-19T09:50:23.749Z,11.67
2023-10-19T09:53:12.528Z,10.90
2023-10-19T09:56:01.060Z,11.97
2023-10-19T09:59:00.475Z,12.23
2023-10-19T10:02:10.148Z,12.23
2023-10-19T10:04:58.712Z,11.70
2023-10-19T10:07:47.054Z,11.70
2023-10-19T10:10:35.663Z,12.53
2023-10-19T10:13:25.734Z,11.63
2023-10-19T10:16:16.761Z,11.87
2023-10-19T10:19:05.830Z,12.00
2023-10-19T10:22:21.987Z,11.23
2023-10-19T10:25:11.560Z,12.00
2023-10-19T10:27:59.225Z,12.23
2023-10-19T10:31:14.813Z,11.70
2023-10-19T10:34:03.105Z,11.60
2023-10-19T10:37:03.981Z,11.83
2023-10-19T10:39:51.181Z,12.23
2023-10-19T10:42:42.548Z,12.37
2023-10-19T10:45:29.536Z,12.13
2023-10-19T10:48:18.817Z,12.10
2023-10-19T10:51:16.458Z,12.77
2023-10-19T10:54:05.524Z,11.83
2023-10-19T10:56:52.559Z,11.57
2023-10-19T10:59:39.532Z,12.47
2023-10-19T11:02:26.602Z,11.73
2023-10-19T11:05:15.572Z,12.00
2023-10-19T11:08:17.210Z,11.87
2023-10-19T11:11:06.601Z,12.17
2023-10-19T11:13:53.690Z,12.43
2023-10-19T11:16:41.019Z,12.77
2023-10-19T11:19:40.709Z,12.97
2023-10-19T11:22:28.074Z,11.73
2023-10-19T11:25:22.918Z,12.97
2023-10-19T11:28:20.088Z,12.03
2023-10-19T11:31:23.209Z,12.90
2023-10-19T11:34:10.982Z,12.70
2023-10-19T11:37:00.452Z,12.60
2023-10-19T11:39:47.852Z,12.77
2023-10-19T11:42:34.862Z,12.03
2023-10-19T11:45:21.864Z,12.27
2023-10-19T11:48:08.934Z,12.13
2023-10-19T11:50:56.008Z,12.37
2023-10-19T11:53:44.078Z,11.90
2023-10-19T11:56:31.174Z,12.20
2023-10-19T11:59:18.677Z,12.30
2023-10-19T12:02:07.964Z,12.23
2023-10-19T12:04:55.424Z,12.43
2023-10-19T12:07:42.483Z,12.23
2023-10-19T12:10:36.407Z,11.97
2023-10-19T12:13:23.611Z,12.93
2023-10-19T12:16:13.725Z,13.27
2023-10-19T12:19:00.953Z,12.17
2023-10-19T12:21:47.973Z,12.77
2023-10-19T12:24:35.009Z,13.50
2023-10-19T12:27:22.008Z,12.53
2023-10-19T12:30:20.740Z,13.40
2023-10-19T12:33:12.664Z,13.10
2023-10-19T12:36:00.472Z,12.47
2023-10-19T12:38:48.355Z,13.27
2023-10-19T12:41:35.518Z,12.90
2023-10-19T12:44:23.777Z,12.50
2023-10-19T12:47:14.316Z,12.20
2023-10-19T12:50:01.750Z,12.93
2023-10-19T12:52:51.905Z,12.23
2023-10-19T12:55:39.114Z,13.60
2023-10-19T12:58:28.690Z,13.00
2023-10-19T13:01:19.923Z,12.97
2023-10-19T13:04:19.228Z,12.10
2023-10-19T13:07:06.857Z,12.47
2023-10-19T13:09:53.991Z,13.07
2023-10-19T13:12:41.741Z,12.57
2023-10-19T13:15:31.976Z,13.03
2023-10-19T13:18:20.930Z,13.77
2023-10-19T13:21:12.692Z,13.47
2023-10-19T13:23:59.768Z,13.40
2023-10-19T13:26:47.994Z,12.93
2023-10-19T13:29:38.608Z,13.93
2023-10-19T13:32:29.952Z,13.03
2023-10-19T13:35:17.060Z,13.20
2023-10-19T13:38:06.112Z,13.47
2023-10-19T13:40:54.470Z,12.80
2023-10-19T13:43:43.445Z,13.10
2023-10-19T13:46:31.620Z,13.20
2023-10-19T13:49:20.004Z,14.03
2023-10-19T13:52:07.010Z,12.80
2023-10-19T13:54:53.994Z,12.73
2023-10-19T13:57:41.037Z,12.70
2023-10-19T14:00:36.418Z,12.67
2023-10-19T14:03:23.554Z,12.30
2023-10-19T14:06:14.844Z,12.50
2023-10-19T14:09:03.098Z,12.37
2023-10-19T14:11:50.367Z,12.97
2023-10-19T14:14:37.936Z,11.97
2023-10-19T14:17:25.038Z,12.47
2023-10-19T14:20:15.638Z,12.40
2023-10-19T14:23:06.614Z,13.27
2023-10-19T14:25:54.159Z,13.03
2023-10-19T14:28:42.305Z,12.77
2023-10-19T14:31:29.899Z,12.50
2023-10-19T14:34:17.296Z,12.23
2023-10-19T14:37:04.364Z,13.00
2023-10-19T14:39:51.495Z,12.63
2023-10-19T14:42:44.761Z,12.87
2023-10-19T14:45:31.935Z,12.27
2023-10-19T14:48:20.665Z,12.13
2023-10-19T14:51:08.538Z,11.73
2023-10-19T14:53:55.895Z,12.67
2023-10-19T14:56:43.153Z,11.83
2023-10-19T14:59:30.511Z,12.33
2023-10-19T15:02:18.730Z,12.27
2023-10-19T15:05:06.376Z,12.83
2023-10-19T15:07:53.748Z,11.97
2023-10-19T15:10:43.200Z,11.57
2023-10-19T15:13:30.683Z,12.77
2023-10-19T15:16:18.362Z,11.50
2023-10-19T15:19:05.445Z,12.33
2023-10-19T15:21:52.557Z,12.03
2023-10-19T15:24:39.542Z,13.43
2023-10-19T15:27:26.704Z,12.13
2023-10-19T15:30:14.450Z,13.20
2023-10-19T15:33:01.632Z,12.30
2023-10-19T15:35:49.113Z,11.97
2023-10-19T15:38:36.113Z,11.73
2023-10-19T15:41:23.218Z,11.30
2023-10-19T15:44:10.366Z,11.17
2023-10-19T15:46:57.433Z,10.40
2023-10-19T15:49:50.057Z,11.30
2023-10-19T15:52:46.329Z,11.07
2023-10-19T15:55:33.758Z,10.83
2023-10-19T15:58:23.032Z,10.67
2023-10-19T16:01:12.501Z,10.13
2023-10-19T16:04:00.970Z,10.10
2023-10-19T16:06:48.070Z,10.97
2023-10-19T16:09:35.438Z,10.70
2023-10-19T16:12:23.157Z,11.57
2023-10-19T16:15:10.574Z,11.17
2023-10-19T16:17:57.771Z,10.17
2023-10-19T16:20:45.036Z,11.70
2023-10-19T16:23:32.008Z,12.20
2023-10-19T16:26:19.089Z,12.77
2023-10-19T16:29:06.855Z,12.00
2023-10-19T16:31:59.385Z,11.77
2023-10-19T16:34:46.644Z,12.67
2023-10-19T16:37:34.146Z,12.47
2023-10-19T16:40:21.421Z,12.13
2023-10-19T16:43:11.672Z,11.73
2023-10-19T16:46:01.962Z,12.53
2023-10-19T16:48:49.084Z,11.93
2023-10-19T16:51:41.044Z,12.87
2023-10-19T16:54:28.807Z,12.00
2023-10-19T16:57:15.923Z,12.07
2023-10-19T17:00:03.121Z,11.37
2023-10-19T17:02:50.450Z,11.53
2023-10-19T17:05:37.589Z,12.00
2023-10-19T17:08:24.977Z,12.63
2023-10-19T17:11:12.954Z,12.40
2023-10-19T17:14:00.120Z,13.07
2023-10-19T17:16:47.213Z,13.20
2023-10-19T17:19:34.270Z,14.40
2023-10-19T17:22:21.429Z,14.40
2023-10-19T17:25:08.523Z,14.67
2023-10-19T17:27:56.977Z,14.63
2023-10-19T17:30:45.204Z,17.50
2023-10-19T17:33:32.477Z,17.37
2023-10-19T17:36:20.270Z,17.63
2023-10-19T17:39:12.877Z,15.83
2023-10-19T17:42:00.774Z,14.87
2023-10-19T17:44:47.763Z,13.43
2023-10-19T17:47:34.938Z,14.10
2023-10-19T17:50:22.164Z,14.37
2023-10-19T17:53:09.287Z,14.80
2023-10-19T17:55:57.867Z,14.27
2023-10-19T17:58:45.864Z,14.70
2023-10-19T18:01:34.146Z,14.30
2023-10-19T18:04:22.318Z,13.27
2023-10-19T18:07:10.917Z,14.33
2023-10-19T18:09:57.909Z,14.93
2023-10-19T18:12:45.724Z,14.27
2023-10-19T18:15:32.811Z,14.27
2023-10-19T18:18:20.716Z,15.27
2023-10-19T18:21:12.734Z,14.53
2023-10-19T18:24:03.451Z,14.80
2023-10-19T18:26:50.465Z,13.43
2023-10-19T18:29:37.450Z,14.10
2023-10-19T18:32:24.568Z,14.60
2023-10-19T18:35:11.927Z,13.73
2023-10-19T18:37:59.645Z,15.37
2023-10-19T18:41:07.873Z,14.30
2023-10-19T18:43:55.193Z,14.53
2023-10-19T18:46:42.257Z,13.77
2023-10-19T18:49:29.400Z,14.30
2023-10-19T18:52:16.421Z,14.60
2023-10-19T18:55:04.177Z,14.90
2023-10-19T18:57:51.387Z,14.43
2023-10-19T19:00:38.782Z,13.47
2023-10-19T19:03:34.793Z,14.33
2023-10-19T19:06:21.898Z,13.87
2023-10-19T19:09:12.867Z,14.10
2023-10-19T19:12:00.115Z,14.20
2023-10-19T19:14:47.456Z,14.27
2023-10-19T19:17:34.699Z,14.20
2023-10-19T19:20:24.900Z,15.83
2023-10-19T19:23:12.638Z,15.40
2023-10-19T19:25:59.649Z,15.17
2023-10-19T19:28:47.974Z,13.67
2023-10-19T19:31:35.637Z,15.30
2023-10-19T19:34:22.711Z,14.67
2023-10-19T19:37:09.668Z,15.47
2023-10-19T19:39:56.656Z,16.00
2023-10-19T19:42:44.462Z,15.07
2023-10-19T19:45:31.648Z,14.60
2023-10-19T19:48:22.759Z,14.87
2023-10-19T19:51:10.793Z,13.73
2023-10-19T19:53:57.854Z,15.27
2023-10-19T19:56:44.833Z,15.27
2023-10-19T19:59:32.414Z,14.60
2023-10-19T20:02:19.636Z,14.70
2023-10-19T20:05:09.802Z,15.13
2023-10-19T20:08:00.930Z,14.17
2023-10-19T20:10:48.139Z,14.93
2023-10-19T20:13:37.138Z,15.53
2023-10-19T20:16:24.199Z,16.27
2023-10-19T20:19:11.352Z,15.63
2023-10-19T20:21:58.463Z,15.70
2023-10-19T20:24:45.471Z,15.07
2023-10-19T20:27:34.079Z,15.40
2023-10-19T20:30:21.940Z,14.13
2023-10-19T20:33:09.566Z,14.33
2023-10-19T20:35:56.669Z,13.43
2023-10-19T20:38:44.782Z,13.50
2023-10-19T20:41:31.724Z,14.10
2023-10-19T20:44:24.092Z,12.90
2023-10-19T20:47:11.988Z,13.10
2023-10-19T20:49:59.120Z,13.10
2023-10-19T20:52:47.255Z,13.87
2023-10-19T20:55:34.593Z,13.07
2023-10-19T20:58:23.861Z,14.53
2023-10-19T21:01:13.423Z,13.60
2023-10-19T21:04:00.591Z,13.13
2023-10-19T21:06:47.775Z,13.60
2023-10-19T21:09:34.774Z,13.43
2023-10-19T21:12:21.922Z,13.23
2023-10-19T21:15:13.982Z,13.40
2023-10-19T21:18:01.292Z,13.20
2023-10-19T21:20:48.345Z,11.57
2023-10-19T21:23:35.726Z,12.70
2023-10-19T21:26:22.846Z,12.93
2023-10-19T21:29:10.155Z,13.90
2023-10-19T21:31:57.325Z,13.40
2023-10-19T21:34:44.421Z,13.50
2023-10-19T21:37:33.852Z,13.33
2023-10-19T21:40:20.971Z,13.10
2023-10-19T21:43:07.977Z,13.10
2023-10-19T21:45:55.277Z,14.23
2023-10-19T21:48:42.337Z,13.50
2023-10-19T21:51:29.306Z,12.90
2023-10-19T21:54:16.305Z,13.37
2023-10-19T21:57:04.171Z,13.00
2023-10-19T21:59:51.177Z,12.33
2023-10-19T22:05:26.278Z,12.90
2023-10-19T22:08:13.700Z,12.53
2023-10-19T22:11:01.547Z,12.50
2023-10-19T22:13:49.559Z,12.80
2023-10-19T22:16:37.253Z,12.77
2023-10-19T22:19:28.294Z,13.57
2023-10-19T22:22:15.421Z,13.47
2023-10-19T22:25:04.488Z,13.90
2023-10-19T22:27:54.455Z,14.57
2023-10-19T22:30:42.989Z,13.87
2023-10-19T22:33:30.464Z,14.83
2023-10-19T22:36:17.595Z,15.70
2023-10-19T22:39:04.577Z,15.30
2023-10-19T22:41:52.151Z,14.87
2023-10-19T22:44:39.814Z,13.90
2023-10-19T22:47:27.138Z,14.63
2023-10-19T22:50:17.900Z,14.63
2023-10-19T22:53:05.278Z,15.50
2023-10-19T22:55:53.621Z,14.77
2023-10-19T22:58:40.640Z,15.53
2023-10-19T23:01:29.462Z,14.77
2023-10-19T23:04:16.508Z,14.57
2023-10-19T23:07:05.593Z,14.50
2023-10-19T23:09:52.607Z,15.40
2023-10-19T23:12:41.229Z,13.70
2023-10-19T23:15:54.552Z,14.40
2023-10-19T23:18:47.314Z,14.33
2023-10-19T23:21:34.599Z,14.97
2023-10-19T23:24:30.554Z,14.13
2023-10-19T23:27:18.551Z,14.00
2023-10-19T23:30:09.816Z,13.97
2023-10-19T23:33:22.116Z,13.93
2023-10-19T23:36:09.751Z,13.50
2023-10-19T23:38:56.902Z,13.90
2023-10-19T23:41:44.035Z,13.20
2023-10-19T23:44:33.781Z,12.80
2023-10-19T23:47:20.943Z,13.17
2023-10-19T23:50:08.978Z,13.10
2023-10-19T23:52:56.078Z,13.27
2023-10-19T23:55:43.695Z,13.53
2023-10-19T23:58:31.022Z,13.87
